sensor_id;sensor_type;location;lat;lon;timestamp;P1;durP1;ratioP1;P2;durP2;ratioP2
12681;SDS011;6405;59.208;18.216;2022-10-31T00:00:55;4.90;;;2.93;;
12681;SDS011;6405;59.208;18.216;2022-10-31T00:03:23;3.83;;;2.70;;
12681;SDS011;6405;59.208;18.216;2022-10-31T00:05:50;3.90;;;2.60;;
12681;SDS011;6405;59.208;18.216;2022-10-31T00:08:16;3.27;;;2.37;;
12681;SDS011;6405;59.208;18.216;2022-10-31T00:10:45;4.13;;;2.73;;
12681;SDS011;6405;59.208;18.216;2022-10-31T00:13:13;5.93;;;2.53;;
12681;SDS011;6405;59.208;18.216;2022-10-31T00:15:41;4.60;;;2.80;;
12681;SDS011;6405;59.208;18.216;2022-10-31T00:18:08;4.53;;;2.73;;
12681;SDS011;6405;59.208;18.216;2022-10-31T00:20:35;4.43;;;2.47;;
12681;SDS011;6405;59.208;18.216;2022-10-31T00:23:03;3.63;;;2.80;;
12681;SDS011;6405;59.208;18.216;2022-10-31T00:25:32;4.20;;;2.47;;
12681;SDS011;6405;59.208;18.216;2022-10-31T00:28:01;4.77;;;3.00;;
12681;SDS011;6405;59.208;18.216;2022-10-31T00:30:29;5.10;;;2.50;;
12681;SDS011;6405;59.208;18.216;2022-10-31T00:32:56;6.33;;;3.03;;
12681;SDS011;6405;59.208;18.216;2022-10-31T00:35:23;4.53;;;2.57;;
12681;SDS011;6405;59.208;18.216;2022-10-31T00:37:49;5.43;;;2.50;;
12681;SDS011;6405;59.208;18.216;2022-10-31T00:40:17;7.37;;;2.73;;
12681;SDS011;6405;59.208;18.216;2022-10-31T00:42:44;6.27;;;2.50;;
12681;SDS011;6405;59.208;18.216;2022-10-31T00:45:12;4.70;;;2.60;;
12681;SDS011;6405;59.208;18.216;2022-10-31T00:47:39;5.97;;;2.77;;
12681;SDS011;6405;59.208;18.216;2022-10-31T00:50:07;5.10;;;2.60;;
12681;SDS011;6405;59.208;18.216;2022-10-31T00:52:34;6.47;;;2.67;;
12681;SDS011;6405;59.208;18.216;2022-10-31T00:55:00;2.87;;;2.07;;
12681;SDS011;6405;59.208;18.216;2022-10-31T00:57:27;3.53;;;2.47;;
12681;SDS011;6405;59.208;18.216;2022-10-31T00:59:54;5.47;;;2.37;;
12681;SDS011;6405;59.208;18.216;2022-10-31T01:02:20;7.53;;;2.50;;
12681;SDS011;6405;59.208;18.216;2022-10-31T01:04:47;5.57;;;2.80;;
12681;SDS011;6405;59.208;18.216;2022-10-31T01:07:15;3.50;;;2.60;;
12681;SDS011;6405;59.208;18.216;2022-10-31T01:09:42;4.03;;;2.23;;
12681;SDS011;6405;59.208;18.216;2022-10-31T01:12:09;5.80;;;2.43;;
12681;SDS011;6405;59.208;18.216;2022-10-31T01:14:35;4.40;;;2.20;;
12681;SDS011;6405;59.208;18.216;2022-10-31T01:17:03;4.03;;;2.53;;
12681;SDS011;6405;59.208;18.216;2022-10-31T01:19:29;6.27;;;2.63;;
12681;SDS011;6405;59.208;18.216;2022-10-31T01:21:57;3.37;;;2.40;;
12681;SDS011;6405;59.208;18.216;2022-10-31T01:24:24;7.70;;;2.33;;
12681;SDS011;6405;59.208;18.216;2022-10-31T01:26:52;3.67;;;2.23;;
12681;SDS011;6405;59.208;18.216;2022-10-31T01:29:19;4.53;;;2.20;;
12681;SDS011;6405;59.208;18.216;2022-10-31T01:31:47;3.67;;;2.27;;
12681;SDS011;6405;59.208;18.216;2022-10-31T01:34:14;3.63;;;2.50;;
12681;SDS011;6405;59.208;18.216;2022-10-31T01:36:41;4.57;;;2.20;;
12681;SDS011;6405;59.208;18.216;2022-10-31T01:39:11;7.63;;;2.13;;
12681;SDS011;6405;59.208;18.216;2022-10-31T01:41:41;5.47;;;2.10;;
12681;SDS011;6405;59.208;18.216;2022-10-31T01:47:01;5.20;;;2.47;;
12681;SDS011;6405;59.208;18.216;2022-10-31T01:52:33;5.60;;;2.23;;
12681;SDS011;6405;59.208;18.216;2022-10-31T01:55:06;5.33;;;2.20;;
12681;SDS011;6405;59.208;18.216;2022-10-31T01:57:36;4.53;;;2.40;;
12681;SDS011;6405;59.208;18.216;2022-10-31T02:00:06;4.07;;;2.40;;
12681;SDS011;6405;59.208;18.216;2022-10-31T02:02:35;5.10;;;2.43;;
12681;SDS011;6405;59.208;18.216;2022-10-31T02:05:04;5.97;;;2.97;;
12681;SDS011;6405;59.208;18.216;2022-10-31T02:07:36;7.80;;;2.50;;
12681;SDS011;6405;59.208;18.216;2022-10-31T02:10:10;4.07;;;2.90;;
12681;SDS011;6405;59.208;18.216;2022-10-31T02:12:38;5.30;;;2.50;;
12681;SDS011;6405;59.208;18.216;2022-10-31T02:15:10;6.40;;;3.27;;
12681;SDS011;6405;59.208;18.216;2022-10-31T02:17:37;4.20;;;2.73;;
12681;SDS011;6405;59.208;18.216;2022-10-31T02:31:07;3.07;;;2.30;;
12681;SDS011;6405;59.208;18.216;2022-10-31T02:33:51;3.03;;;2.17;;
12681;SDS011;6405;59.208;18.216;2022-10-31T02:36:27;3.13;;;2.30;;
12681;SDS011;6405;59.208;18.216;2022-10-31T02:39:04;2.90;;;1.87;;
12681;SDS011;6405;59.208;18.216;2022-10-31T02:41:41;4.37;;;2.60;;
12681;SDS011;6405;59.208;18.216;2022-10-31T02:47:01;3.57;;;2.10;;
12681;SDS011;6405;59.208;18.216;2022-10-31T02:52:14;5.27;;;2.63;;
12681;SDS011;6405;59.208;18.216;2022-10-31T02:54:47;4.90;;;2.90;;
12681;SDS011;6405;59.208;18.216;2022-10-31T02:57:13;6.93;;;3.00;;
12681;SDS011;6405;59.208;18.216;2022-10-31T02:59:47;7.20;;;3.50;;
12681;SDS011;6405;59.208;18.216;2022-10-31T03:05:13;10.97;;;3.70;;
12681;SDS011;6405;59.208;18.216;2022-10-31T03:15:45;8.33;;;3.87;;
12681;SDS011;6405;59.208;18.216;2022-10-31T03:21:14;10.57;;;4.57;;
12681;SDS011;6405;59.208;18.216;2022-10-31T03:23:48;13.27;;;4.37;;
12681;SDS011;6405;59.208;18.216;2022-10-31T03:26:19;10.77;;;4.80;;
12681;SDS011;6405;59.208;18.216;2022-10-31T03:28:58;15.50;;;4.87;;
12681;SDS011;6405;59.208;18.216;2022-10-31T03:31:38;11.97;;;4.10;;
12681;SDS011;6405;59.208;18.216;2022-10-31T03:34:14;8.93;;;3.90;;
12681;SDS011;6405;59.208;18.216;2022-10-31T03:36:43;7.73;;;3.93;;
12681;SDS011;6405;59.208;18.216;2022-10-31T03:39:14;16.57;;;5.83;;
12681;SDS011;6405;59.208;18.216;2022-10-31T03:41:47;9.53;;;3.87;;
12681;SDS011;6405;59.208;18.216;2022-10-31T03:44:22;19.63;;;4.93;;
12681;SDS011;6405;59.208;18.216;2022-10-31T03:46:51;12.40;;;4.90;;
12681;SDS011;6405;59.208;18.216;2022-10-31T03:49:18;15.30;;;5.60;;
12681;SDS011;6405;59.208;18.216;2022-10-31T03:51:53;13.03;;;5.67;;
12681;SDS011;6405;59.208;18.216;2022-10-31T03:57:03;19.27;;;6.80;;
12681;SDS011;6405;59.208;18.216;2022-10-31T03:59:36;22.83;;;6.67;;
12681;SDS011;6405;59.208;18.216;2022-10-31T04:02:10;21.60;;;7.20;;
12681;SDS011;6405;59.208;18.216;2022-10-31T04:04:44;21.83;;;7.17;;
12681;SDS011;6405;59.208;18.216;2022-10-31T04:07:13;17.30;;;7.03;;
12681;SDS011;6405;59.208;18.216;2022-10-31T04:09:43;18.50;;;6.33;;
12681;SDS011;6405;59.208;18.216;2022-10-31T04:12:14;13.53;;;6.37;;
12681;SDS011;6405;59.208;18.216;2022-10-31T04:14:43;19.07;;;6.80;;
12681;SDS011;6405;59.208;18.216;2022-10-31T04:17:15;15.87;;;6.27;;
12681;SDS011;6405;59.208;18.216;2022-10-31T04:19:45;12.80;;;5.77;;
12681;SDS011;6405;59.208;18.216;2022-10-31T04:22:13;16.40;;;5.73;;
12681;SDS011;6405;59.208;18.216;2022-10-31T04:24:40;16.97;;;5.07;;
12681;SDS011;6405;59.208;18.216;2022-10-31T04:27:07;10.63;;;5.80;;
12681;SDS011;6405;59.208;18.216;2022-10-31T04:29:34;15.03;;;5.57;;
12681;SDS011;6405;59.208;18.216;2022-10-31T04:32:00;16.20;;;6.70;;
12681;SDS011;6405;59.208;18.216;2022-10-31T04:34:28;21.47;;;6.30;;
12681;SDS011;6405;59.208;18.216;2022-10-31T04:36:56;24.47;;;6.83;;
12681;SDS011;6405;59.208;18.216;2022-10-31T04:39:24;27.17;;;6.90;;
12681;SDS011;6405;59.208;18.216;2022-10-31T04:41:51;19.97;;;7.60;;
12681;SDS011;6405;59.208;18.216;2022-10-31T04:44:18;21.23;;;8.13;;
12681;SDS011;6405;59.208;18.216;2022-10-31T04:46:46;25.30;;;8.33;;
12681;SDS011;6405;59.208;18.216;2022-10-31T04:49:13;28.80;;;8.90;;
12681;SDS011;6405;59.208;18.216;2022-10-31T04:51:41;25.80;;;8.07;;
12681;SDS011;6405;59.208;18.216;2022-10-31T04:54:09;27.23;;;7.80;;
12681;SDS011;6405;59.208;18.216;2022-10-31T04:56:35;36.70;;;7.93;;
12681;SDS011;6405;59.208;18.216;2022-10-31T04:59:02;31.33;;;8.53;;
12681;SDS011;6405;59.208;18.216;2022-10-31T05:01:30;34.63;;;8.00;;
12681;SDS011;6405;59.208;18.216;2022-10-31T05:03:59;35.20;;;8.70;;
12681;SDS011;6405;59.208;18.216;2022-10-31T05:06:26;30.13;;;9.23;;
12681;SDS011;6405;59.208;18.216;2022-10-31T05:08:53;36.10;;;9.20;;
12681;SDS011;6405;59.208;18.216;2022-10-31T05:11:20;40.03;;;9.37;;
12681;SDS011;6405;59.208;18.216;2022-10-31T05:13:48;43.23;;;10.97;;
12681;SDS011;6405;59.208;18.216;2022-10-31T05:16:16;41.93;;;10.60;;
12681;SDS011;6405;59.208;18.216;2022-10-31T05:18:43;48.57;;;11.63;;
12681;SDS011;6405;59.208;18.216;2022-10-31T05:21:10;49.07;;;13.27;;
12681;SDS011;6405;59.208;18.216;2022-10-31T05:23:38;49.20;;;11.13;;
12681;SDS011;6405;59.208;18.216;2022-10-31T05:26:04;38.07;;;10.63;;
12681;SDS011;6405;59.208;18.216;2022-10-31T05:28:31;56.27;;;11.27;;
12681;SDS011;6405;59.208;18.216;2022-10-31T05:30:58;59.20;;;11.73;;
12681;SDS011;6405;59.208;18.216;2022-10-31T05:33:27;53.07;;;12.40;;
12681;SDS011;6405;59.208;18.216;2022-10-31T05:35:53;65.10;;;13.07;;
12681;SDS011;6405;59.208;18.216;2022-10-31T05:38:21;68.17;;;13.13;;
12681;SDS011;6405;59.208;18.216;2022-10-31T05:40:48;77.37;;;13.17;;
12681;SDS011;6405;59.208;18.216;2022-10-31T05:43:15;68.63;;;13.93;;
12681;SDS011;6405;59.208;18.216;2022-10-31T05:45:43;76.60;;;15.07;;
12681;SDS011;6405;59.208;18.216;2022-10-31T05:48:11;73.40;;;12.70;;
12681;SDS011;6405;59.208;18.216;2022-10-31T05:50:38;64.80;;;10.80;;
12681;SDS011;6405;59.208;18.216;2022-10-31T05:53:06;72.13;;;12.13;;
12681;SDS011;6405;59.208;18.216;2022-10-31T05:55:34;77.33;;;13.73;;
12681;SDS011;6405;59.208;18.216;2022-10-31T05:58:01;74.33;;;12.33;;
12681;SDS011;6405;59.208;18.216;2022-10-31T06:00:29;78.47;;;13.70;;
12681;SDS011;6405;59.208;18.216;2022-10-31T06:02:57;54.73;;;12.07;;
12681;SDS011;6405;59.208;18.216;2022-10-31T06:05:25;52.83;;;11.83;;
12681;SDS011;6405;59.208;18.216;2022-10-31T06:07:52;83.10;;;14.93;;
12681;SDS011;6405;59.208;18.216;2022-10-31T06:10:20;77.33;;;13.40;;
12681;SDS011;6405;59.208;18.216;2022-10-31T06:12:48;79.30;;;13.97;;
12681;SDS011;6405;59.208;18.216;2022-10-31T06:15:16;81.03;;;12.80;;
12681;SDS011;6405;59.208;18.216;2022-10-31T06:17:44;51.53;;;10.50;;
12681;SDS011;6405;59.208;18.216;2022-10-31T06:20:12;39.27;;;9.83;;
12681;SDS011;6405;59.208;18.216;2022-10-31T06:22:39;33.30;;;9.20;;
12681;SDS011;6405;59.208;18.216;2022-10-31T06:25:06;27.27;;;8.17;;
12681;SDS011;6405;59.208;18.216;2022-10-31T06:27:33;26.37;;;8.47;;
12681;SDS011;6405;59.208;18.216;2022-10-31T06:29:59;21.03;;;8.27;;
12681;SDS011;6405;59.208;18.216;2022-10-31T06:32:26;90.27;;;13.80;;
12681;SDS011;6405;59.208;18.216;2022-10-31T06:34:53;67.63;;;12.27;;
12681;SDS011;6405;59.208;18.216;2022-10-31T06:37:19;98.77;;;14.30;;
12681;SDS011;6405;59.208;18.216;2022-10-31T06:39:47;66.60;;;13.33;;
12681;SDS011;6405;59.208;18.216;2022-10-31T06:42:16;92.23;;;16.40;;
12681;SDS011;6405;59.208;18.216;2022-10-31T06:44:44;104.53;;;17.93;;
12681;SDS011;6405;59.208;18.216;2022-10-31T06:47:12;160.20;;;21.60;;
12681;SDS011;6405;59.208;18.216;2022-10-31T06:49:40;48.90;;;11.23;;
12681;SDS011;6405;59.208;18.216;2022-10-31T06:52:07;80.67;;;15.63;;
12681;SDS011;6405;59.208;18.216;2022-10-31T06:54:34;95.03;;;14.60;;
12681;SDS011;6405;59.208;18.216;2022-10-31T06:57:02;80.47;;;13.23;;
12681;SDS011;6405;59.208;18.216;2022-10-31T06:59:30;90.90;;;13.73;;
12681;SDS011;6405;59.208;18.216;2022-10-31T07:01:57;50.63;;;13.13;;
12681;SDS011;6405;59.208;18.216;2022-10-31T07:04:25;58.37;;;12.43;;
12681;SDS011;6405;59.208;18.216;2022-10-31T07:06:52;65.93;;;12.57;;
12681;SDS011;6405;59.208;18.216;2022-10-31T07:09:19;60.20;;;12.20;;
12681;SDS011;6405;59.208;18.216;2022-10-31T07:11:47;49.87;;;10.40;;
12681;SDS011;6405;59.208;18.216;2022-10-31T07:14:14;38.47;;;10.10;;
12681;SDS011;6405;59.208;18.216;2022-10-31T07:16:40;29.23;;;9.83;;
12681;SDS011;6405;59.208;18.216;2022-10-31T07:19:07;42.17;;;10.80;;
12681;SDS011;6405;59.208;18.216;2022-10-31T07:21:34;43.03;;;11.40;;
12681;SDS011;6405;59.208;18.216;2022-10-31T07:24:01;64.40;;;12.03;;
12681;SDS011;6405;59.208;18.216;2022-10-31T07:26:29;57.00;;;12.37;;
12681;SDS011;6405;59.208;18.216;2022-10-31T07:28:56;57.60;;;12.80;;
12681;SDS011;6405;59.208;18.216;2022-10-31T07:31:23;67.87;;;10.77;;
12681;SDS011;6405;59.208;18.216;2022-10-31T07:33:51;81.67;;;16.50;;
12681;SDS011;6405;59.208;18.216;2022-10-31T07:36:18;66.90;;;12.27;;
12681;SDS011;6405;59.208;18.216;2022-10-31T07:38:46;71.43;;;13.87;;
12681;SDS011;6405;59.208;18.216;2022-10-31T07:41:14;96.13;;;15.13;;
12681;SDS011;6405;59.208;18.216;2022-10-31T07:43:41;82.23;;;14.57;;
12681;SDS011;6405;59.208;18.216;2022-10-31T07:46:07;69.20;;;12.03;;
12681;SDS011;6405;59.208;18.216;2022-10-31T07:48:35;89.00;;;14.80;;
12681;SDS011;6405;59.208;18.216;2022-10-31T07:51:02;102.40;;;16.50;;
12681;SDS011;6405;59.208;18.216;2022-10-31T07:53:29;52.50;;;12.63;;
12681;SDS011;6405;59.208;18.216;2022-10-31T07:55:56;83.00;;;13.63;;
12681;SDS011;6405;59.208;18.216;2022-10-31T07:58:23;62.87;;;13.63;;
12681;SDS011;6405;59.208;18.216;2022-10-31T08:00:50;42.13;;;11.13;;
12681;SDS011;6405;59.208;18.216;2022-10-31T08:03:19;63.60;;;13.40;;
12681;SDS011;6405;59.208;18.216;2022-10-31T08:05:46;61.70;;;13.90;;
12681;SDS011;6405;59.208;18.216;2022-10-31T08:08:16;40.40;;;11.67;;
12681;SDS011;6405;59.208;18.216;2022-10-31T08:10:43;55.87;;;13.40;;
12681;SDS011;6405;59.208;18.216;2022-10-31T08:13:10;52.43;;;12.97;;
12681;SDS011;6405;59.208;18.216;2022-10-31T08:15:38;52.97;;;13.83;;
12681;SDS011;6405;59.208;18.216;2022-10-31T08:18:13;37.30;;;11.43;;
12681;SDS011;6405;59.208;18.216;2022-10-31T08:20:42;50.40;;;14.30;;
12681;SDS011;6405;59.208;18.216;2022-10-31T08:23:11;61.33;;;13.70;;
12681;SDS011;6405;59.208;18.216;2022-10-31T08:25:37;58.23;;;15.20;;
12681;SDS011;6405;59.208;18.216;2022-10-31T08:28:06;63.73;;;15.17;;
12681;SDS011;6405;59.208;18.216;2022-10-31T08:30:36;43.80;;;14.03;;
12681;SDS011;6405;59.208;18.216;2022-10-31T08:33:10;50.53;;;14.83;;
12681;SDS011;6405;59.208;18.216;2022-10-31T08:35:39;57.70;;;15.07;;
12681;SDS011;6405;59.208;18.216;2022-10-31T08:38:08;52.47;;;14.37;;
12681;SDS011;6405;59.208;18.216;2022-10-31T08:40:36;53.53;;;15.67;;
12681;SDS011;6405;59.208;18.216;2022-10-31T08:43:11;43.77;;;14.83;;
12681;SDS011;6405;59.208;18.216;2022-10-31T08:45:41;49.50;;;14.13;;
12681;SDS011;6405;59.208;18.216;2022-10-31T08:48:12;49.50;;;14.27;;
12681;SDS011;6405;59.208;18.216;2022-10-31T08:50:40;45.90;;;14.13;;
12681;SDS011;6405;59.208;18.216;2022-10-31T08:53:09;46.90;;;14.43;;
12681;SDS011;6405;59.208;18.216;2022-10-31T08:55:38;45.77;;;13.80;;
12681;SDS011;6405;59.208;18.216;2022-10-31T08:58:06;39.77;;;13.27;;
12681;SDS011;6405;59.208;18.216;2022-10-31T09:00:36;42.97;;;14.40;;
12681;SDS011;6405;59.208;18.216;2022-10-31T09:03:06;45.90;;;14.13;;
12681;SDS011;6405;59.208;18.216;2022-10-31T09:05:36;51.70;;;14.47;;
12681;SDS011;6405;59.208;18.216;2022-10-31T09:08:04;50.20;;;13.37;;
12681;SDS011;6405;59.208;18.216;2022-10-31T09:10:32;42.23;;;13.13;;
12681;SDS011;6405;59.208;18.216;2022-10-31T09:13:02;42.30;;;12.40;;
12681;SDS011;6405;59.208;18.216;2022-10-31T09:15:32;42.57;;;12.20;;
12681;SDS011;6405;59.208;18.216;2022-10-31T09:18:00;44.40;;;14.00;;
12681;SDS011;6405;59.208;18.216;2022-10-31T09:20:28;41.00;;;12.20;;
12681;SDS011;6405;59.208;18.216;2022-10-31T09:22:56;35.03;;;12.07;;
12681;SDS011;6405;59.208;18.216;2022-10-31T09:25:32;36.33;;;12.97;;
12681;SDS011;6405;59.208;18.216;2022-10-31T09:28:01;37.93;;;12.27;;
12681;SDS011;6405;59.208;18.216;2022-10-31T09:30:31;32.20;;;12.50;;
12681;SDS011;6405;59.208;18.216;2022-10-31T09:33:01;28.27;;;11.40;;
12681;SDS011;6405;59.208;18.216;2022-10-31T09:35:31;31.53;;;11.70;;
12681;SDS011;6405;59.208;18.216;2022-10-31T09:38:00;27.77;;;11.63;;
12681;SDS011;6405;59.208;18.216;2022-10-31T09:40:36;35.93;;;10.70;;
12681;SDS011;6405;59.208;18.216;2022-10-31T09:52:03;26.87;;;10.90;;
12681;SDS011;6405;59.208;18.216;2022-10-31T09:57:12;31.40;;;12.13;;
12681;SDS011;6405;59.208;18.216;2022-10-31T09:59:40;29.80;;;11.33;;
12681;SDS011;6405;59.208;18.216;2022-10-31T10:07:44;32.67;;;12.43;;
12681;SDS011;6405;59.208;18.216;2022-10-31T10:13:23;30.13;;;11.50;;
12681;SDS011;6405;59.208;18.216;2022-10-31T10:21:19;23.10;;;10.47;;
12681;SDS011;6405;59.208;18.216;2022-10-31T10:27:06;28.23;;;11.13;;
12681;SDS011;6405;59.208;18.216;2022-10-31T10:30:07;25.90;;;11.47;;
12681;SDS011;6405;59.208;18.216;2022-10-31T10:32:42;23.70;;;11.27;;
12681;SDS011;6405;59.208;18.216;2022-10-31T10:35:34;21.90;;;11.43;;
12681;SDS011;6405;59.208;18.216;2022-10-31T10:38:10;25.23;;;10.70;;
12681;SDS011;6405;59.208;18.216;2022-10-31T10:41:16;23.07;;;11.93;;
12681;SDS011;6405;59.208;18.216;2022-10-31T10:43:45;25.00;;;11.17;;
12681;SDS011;6405;59.208;18.216;2022-10-31T10:52:14;14.70;;;9.20;;
12681;SDS011;6405;59.208;18.216;2022-10-31T10:57:41;16.77;;;10.43;;
12681;SDS011;6405;59.208;18.216;2022-10-31T11:00:27;16.53;;;10.30;;
12681;SDS011;6405;59.208;18.216;2022-10-31T11:02:57;16.83;;;10.37;;
12681;SDS011;6405;59.208;18.216;2022-10-31T11:07:55;15.37;;;11.83;;
12681;SDS011;6405;59.208;18.216;2022-10-31T11:10:23;15.03;;;10.53;;
12681;SDS011;6405;59.208;18.216;2022-10-31T11:13:00;16.47;;;10.77;;
12681;SDS011;6405;59.208;18.216;2022-10-31T11:15:35;16.23;;;10.13;;
12681;SDS011;6405;59.208;18.216;2022-10-31T11:18:19;13.10;;;9.43;;
12681;SDS011;6405;59.208;18.216;2022-10-31T11:20:53;16.13;;;9.47;;
12681;SDS011;6405;59.208;18.216;2022-10-31T11:23:22;14.03;;;9.93;;
12681;SDS011;6405;59.208;18.216;2022-10-31T11:25:51;16.30;;;8.80;;
12681;SDS011;6405;59.208;18.216;2022-10-31T11:28:25;14.77;;;10.07;;
12681;SDS011;6405;59.208;18.216;2022-10-31T11:30:54;16.03;;;9.20;;
12681;SDS011;6405;59.208;18.216;2022-10-31T11:33:37;16.93;;;10.00;;
12681;SDS011;6405;59.208;18.216;2022-10-31T11:36:16;12.40;;;9.20;;
12681;SDS011;6405;59.208;18.216;2022-10-31T11:38:48;14.87;;;10.43;;
12681;SDS011;6405;59.208;18.216;2022-10-31T11:41:18;13.93;;;9.23;;
12681;SDS011;6405;59.208;18.216;2022-10-31T11:43:51;11.47;;;8.43;;
12681;SDS011;6405;59.208;18.216;2022-10-31T11:46:40;13.43;;;9.93;;
12681;SDS011;6405;59.208;18.216;2022-10-31T11:49:20;12.17;;;8.80;;
12681;SDS011;6405;59.208;18.216;2022-10-31T11:51:54;13.47;;;8.83;;
12681;SDS011;6405;59.208;18.216;2022-10-31T11:54:27;15.40;;;8.77;;
12681;SDS011;6405;59.208;18.216;2022-10-31T11:56:57;13.53;;;8.90;;
12681;SDS011;6405;59.208;18.216;2022-10-31T11:59:27;10.60;;;8.37;;
12681;SDS011;6405;59.208;18.216;2022-10-31T12:01:57;13.23;;;8.03;;
12681;SDS011;6405;59.208;18.216;2022-10-31T12:04:31;13.73;;;7.70;;
12681;SDS011;6405;59.208;18.216;2022-10-31T12:07:02;14.40;;;8.50;;
12681;SDS011;6405;59.208;18.216;2022-10-31T12:09:29;12.93;;;8.47;;
12681;SDS011;6405;59.208;18.216;2022-10-31T12:14:47;13.47;;;7.90;;
12681;SDS011;6405;59.208;18.216;2022-10-31T12:17:25;16.40;;;7.90;;
12681;SDS011;6405;59.208;18.216;2022-10-31T12:20:23;15.73;;;7.87;;
12681;SDS011;6405;59.208;18.216;2022-10-31T12:29:14;15.03;;;8.57;;
12681;SDS011;6405;59.208;18.216;2022-10-31T12:34:27;12.53;;;8.03;;
12681;SDS011;6405;59.208;18.216;2022-10-31T12:48:42;12.27;;;7.03;;
12681;SDS011;6405;59.208;18.216;2022-10-31T12:54:15;10.27;;;6.60;;
12681;SDS011;6405;59.208;18.216;2022-10-31T12:59:57;9.97;;;5.70;;
12681;SDS011;6405;59.208;18.216;2022-10-31T13:02:38;9.57;;;5.97;;
12681;SDS011;6405;59.208;18.216;2022-10-31T13:11:05;12.40;;;6.20;;
12681;SDS011;6405;59.208;18.216;2022-10-31T13:16:11;12.13;;;6.57;;
12681;SDS011;6405;59.208;18.216;2022-10-31T13:18:46;10.83;;;6.47;;
12681;SDS011;6405;59.208;18.216;2022-10-31T13:21:22;9.47;;;5.73;;
12681;SDS011;6405;59.208;18.216;2022-10-31T13:23:57;13.67;;;6.80;;
12681;SDS011;6405;59.208;18.216;2022-10-31T13:26:35;8.87;;;6.33;;
12681;SDS011;6405;59.208;18.216;2022-10-31T13:29:32;14.97;;;7.47;;
12681;SDS011;6405;59.208;18.216;2022-10-31T13:32:04;9.50;;;6.30;;
12681;SDS011;6405;59.208;18.216;2022-10-31T13:37:17;12.00;;;6.40;;
12681;SDS011;6405;59.208;18.216;2022-10-31T13:40:11;13.17;;;6.60;;
12681;SDS011;6405;59.208;18.216;2022-10-31T13:43:15;13.30;;;6.97;;
12681;SDS011;6405;59.208;18.216;2022-10-31T13:45:49;11.87;;;6.50;;
12681;SDS011;6405;59.208;18.216;2022-10-31T13:48:19;9.30;;;6.97;;
12681;SDS011;6405;59.208;18.216;2022-10-31T13:51:04;10.87;;;6.67;;
12681;SDS011;6405;59.208;18.216;2022-10-31T13:56:13;8.87;;;5.97;;
12681;SDS011;6405;59.208;18.216;2022-10-31T13:59:02;13.50;;;6.73;;
12681;SDS011;6405;59.208;18.216;2022-10-31T14:01:37;11.10;;;7.03;;
12681;SDS011;6405;59.208;18.216;2022-10-31T14:04:27;12.47;;;6.77;;
12681;SDS011;6405;59.208;18.216;2022-10-31T14:09:38;12.50;;;7.30;;
12681;SDS011;6405;59.208;18.216;2022-10-31T14:12:06;14.23;;;8.00;;
12681;SDS011;6405;59.208;18.216;2022-10-31T14:14:57;13.37;;;6.93;;
12681;SDS011;6405;59.208;18.216;2022-10-31T14:17:45;11.47;;;7.10;;
12681;SDS011;6405;59.208;18.216;2022-10-31T14:22:40;11.10;;;7.53;;
12681;SDS011;6405;59.208;18.216;2022-10-31T14:25:27;17.33;;;7.43;;
12681;SDS011;6405;59.208;18.216;2022-10-31T14:27:59;12.93;;;6.70;;
12681;SDS011;6405;59.208;18.216;2022-10-31T14:30:28;10.70;;;7.03;;
12681;SDS011;6405;59.208;18.216;2022-10-31T14:32:59;12.97;;;6.70;;
12681;SDS011;6405;59.208;18.216;2022-10-31T14:36:17;9.43;;;6.23;;
12681;SDS011;6405;59.208;18.216;2022-10-31T14:41:25;14.60;;;6.47;;
12681;SDS011;6405;59.208;18.216;2022-10-31T14:44:15;13.73;;;5.93;;
12681;SDS011;6405;59.208;18.216;2022-10-31T14:47:16;13.03;;;6.30;;
12681;SDS011;6405;59.208;18.216;2022-10-31T14:52:19;11.27;;;6.93;;
12681;SDS011;6405;59.208;18.216;2022-10-31T14:54:51;12.80;;;7.20;;
12681;SDS011;6405;59.208;18.216;2022-10-31T15:00:15;11.67;;;6.97;;
12681;SDS011;6405;59.208;18.216;2022-10-31T15:05:26;10.97;;;6.20;;
12681;SDS011;6405;59.208;18.216;2022-10-31T15:07:55;11.90;;;6.50;;
12681;SDS011;6405;59.208;18.216;2022-10-31T15:10:25;11.27;;;6.90;;
12681;SDS011;6405;59.208;18.216;2022-10-31T15:13:07;16.23;;;7.03;;
12681;SDS011;6405;59.208;18.216;2022-10-31T15:15:35;10.00;;;5.93;;
12681;SDS011;6405;59.208;18.216;2022-10-31T15:18:04;8.17;;;6.13;;
12681;SDS011;6405;59.208;18.216;2022-10-31T15:20:36;10.93;;;6.17;;
12681;SDS011;6405;59.208;18.216;2022-10-31T15:23:10;10.13;;;6.60;;
12681;SDS011;6405;59.208;18.216;2022-10-31T15:25:42;10.63;;;7.13;;
12681;SDS011;6405;59.208;18.216;2022-10-31T15:28:21;14.47;;;6.97;;
12681;SDS011;6405;59.208;18.216;2022-10-31T15:30:54;15.37;;;7.67;;
12681;SDS011;6405;59.208;18.216;2022-10-31T15:33:27;11.07;;;7.67;;
12681;SDS011;6405;59.208;18.216;2022-10-31T15:35:56;13.47;;;7.93;;
12681;SDS011;6405;59.208;18.216;2022-10-31T15:38:25;12.87;;;7.93;;
12681;SDS011;6405;59.208;18.216;2022-10-31T15:43:51;13.90;;;7.97;;
12681;SDS011;6405;59.208;18.216;2022-10-31T15:46:17;13.37;;;7.67;;
12681;SDS011;6405;59.208;18.216;2022-10-31T15:48:44;15.87;;;8.20;;
12681;SDS011;6405;59.208;18.216;2022-10-31T15:51:13;18.93;;;8.70;;
12681;SDS011;6405;59.208;18.216;2022-10-31T15:53:43;17.30;;;8.33;;
12681;SDS011;6405;59.208;18.216;2022-10-31T15:56:21;12.67;;;8.50;;
12681;SDS011;6405;59.208;18.216;2022-10-31T15:58:57;11.97;;;8.07;;
12681;SDS011;6405;59.208;18.216;2022-10-31T16:01:25;15.17;;;8.90;;
12681;SDS011;6405;59.208;18.216;2022-10-31T16:03:57;17.00;;;8.87;;
12681;SDS011;6405;59.208;18.216;2022-10-31T16:06:45;20.57;;;9.50;;
12681;SDS011;6405;59.208;18.216;2022-10-31T16:09:27;16.97;;;9.17;;
12681;SDS011;6405;59.208;18.216;2022-10-31T16:11:56;15.67;;;8.57;;
12681;SDS011;6405;59.208;18.216;2022-10-31T16:14:26;17.27;;;9.70;;
12681;SDS011;6405;59.208;18.216;2022-10-31T16:16:58;19.80;;;9.63;;
12681;SDS011;6405;59.208;18.216;2022-10-31T16:19:31;16.13;;;9.07;;
12681;SDS011;6405;59.208;18.216;2022-10-31T16:22:05;16.00;;;9.07;;
12681;SDS011;6405;59.208;18.216;2022-10-31T16:25:18;18.97;;;9.60;;
12681;SDS011;6405;59.208;18.216;2022-10-31T16:27:36;13.33;;;9.37;;
12681;SDS011;6405;59.208;18.216;2022-10-31T16:33:19;17.10;;;9.53;;
12681;SDS011;6405;59.208;18.216;2022-10-31T16:35:50;13.10;;;7.53;;
12681;SDS011;6405;59.208;18.216;2022-10-31T16:38:17;17.43;;;8.53;;
12681;SDS011;6405;59.208;18.216;2022-10-31T16:40:45;12.87;;;8.77;;
12681;SDS011;6405;59.208;18.216;2022-10-31T16:43:13;14.20;;;8.83;;
12681;SDS011;6405;59.208;18.216;2022-10-31T16:45:45;13.93;;;8.73;;
12681;SDS011;6405;59.208;18.216;2022-10-31T16:48:13;12.93;;;8.40;;
12681;SDS011;6405;59.208;18.216;2022-10-31T16:50:43;16.20;;;9.10;;
12681;SDS011;6405;59.208;18.216;2022-10-31T16:53:12;14.83;;;9.63;;
12681;SDS011;6405;59.208;18.216;2022-10-31T16:55:54;18.50;;;10.30;;
12681;SDS011;6405;59.208;18.216;2022-10-31T16:58:32;22.20;;;10.37;;
12681;SDS011;6405;59.208;18.216;2022-10-31T17:01:00;21.10;;;12.13;;
12681;SDS011;6405;59.208;18.216;2022-10-31T17:03:31;22.73;;;10.50;;
12681;SDS011;6405;59.208;18.216;2022-10-31T17:05:59;15.73;;;9.13;;
12681;SDS011;6405;59.208;18.216;2022-10-31T17:08:27;12.47;;;8.43;;
12681;SDS011;6405;59.208;18.216;2022-10-31T17:10:56;16.70;;;9.87;;
12681;SDS011;6405;59.208;18.216;2022-10-31T17:13:27;17.67;;;10.47;;
12681;SDS011;6405;59.208;18.216;2022-10-31T17:15:58;17.13;;;10.20;;
12681;SDS011;6405;59.208;18.216;2022-10-31T17:18:29;26.23;;;12.00;;
12681;SDS011;6405;59.208;18.216;2022-10-31T17:20:58;15.67;;;11.33;;